Time;durP1;ratioP1;P1;durP2;ratioP2;P2;SDS_P1;SDS_P2;PMS_P1;PMS_P2;Temp;Humidity;BMP_temperature;BMP_pressure;BME280_temperature;BME280_humidity;BME280_pressure;Samples;Min_cycle;Max_cycle;Signal;HPM_P1;HPM_P2
2023/08/08 00:02:27;;;;;;;0.40;0.40;;;22.90;84.10;;;;;;6332349;22;20169;-86
2023/08/08 00:04:56;;;;;;;0.45;0.40;;;22.90;83.60;;;;;;6335539;22;20228;-85
2023/08/08 00:07:24;;;;;;;0.20;0.20;;;22.90;83.60;;;;;;6333714;22;20164;-83
2023/08/08 00:09:53;;;;;;;0.50;0.50;;;22.80;84.20;;;;;;6335199;22;20196;-85
2023/08/08 00:12:21;;;;;;;0.20;0.20;;;22.80;84.70;;;;;;6333822;22;20251;-84
2023/08/08 00:14:50;;;;;;;0.20;0.20;;;22.80;85.00;;;;;;6332313;22;20184;-84
2023/08/08 00:17:19;;;;;;;0.93;0.55;;;22.80;85.50;;;;;;6334396;22;20167;-84
2023/08/08 00:19:48;;;;;;;0.20;0.20;;;22.80;85.50;;;;;;6336486;22;20167;-85
2023/08/08 00:22:17;;;;;;;0.20;0.20;;;22.70;85.40;;;;;;6336142;22;20195;-84
2023/08/08 00:24:45;;;;;;;0.50;0.40;;;22.70;85.50;;;;;;6337849;22;20251;-85
2023/08/08 00:27:13;;;;;;;0.20;0.20;;;22.60;86.40;;;;;;6336957;22;20667;-86
2023/08/08 00:29:42;;;;;;;0.32;0.32;;;22.60;86.70;;;;;;6336430;22;20256;-86
2023/08/08 00:32:10;;;;;;;0.20;0.20;;;22.50;87.00;;;;;;6335718;22;20165;-85
2023/08/08 00:34:39;;;;;;;0.20;0.20;;;22.50;87.40;;;;;;6336668;22;20211;-83
2023/08/08 00:37:08;;;;;;;0.20;0.20;;;22.50;87.50;;;;;;6336660;22;20247;-85
2023/08/08 00:39:37;;;;;;;0.73;0.73;;;22.50;87.90;;;;;;6336874;22;20168;-85
2023/08/08 00:42:05;;;;;;;1.40;0.75;;;22.40;88.00;;;;;;6334969;22;20164;-84
2023/08/08 00:44:34;;;;;;;0.28;0.28;;;22.40;87.70;;;;;;6336557;22;20502;-85
2023/08/08 00:47:02;;;;;;;0.30;0.30;;;22.40;87.90;;;;;;6335742;22;20172;-84
2023/08/08 00:49:31;;;;;;;0.20;0.20;;;22.30;89.00;;;;;;6338045;22;20187;-84
2023/08/08 00:51:59;;;;;;;0.93;0.40;;;22.30;87.90;;;;;;6335724;22;20594;-84
2023/08/08 00:54:30;;;;;;;0.43;0.40;;;22.30;87.70;;;;;;6336462;22;20160;-85
2023/08/08 00:56:59;;;;;;;15.77;0.60;;;22.30;88.00;;;;;;6336232;22;20153;-82
2023/08/08 00:59:28;;;;;;;0.40;0.40;;;22.30;88.60;;;;;;6336904;22;20169;-87
2023/08/08 01:01:58;;;;;;;0.55;0.35;;;22.30;88.80;;;;;;6336087;22;20202;-86
2023/08/08 01:04:27;;;;;;;0.73;0.63;;;22.20;88.90;;;;;;6336420;22;20165;-84
2023/08/08 01:07:03;;;;;;;2.08;0.80;;;22.20;89.60;;;;;;6336197;22;20180;-86
2023/08/08 01:09:37;;;;;;;0.30;0.30;;;22.20;89.90;;;;;;6335937;22;20206;-86
2023/08/08 01:12:08;;;;;;;1.10;0.75;;;22.20;89.70;;;;;;6336516;22;20167;-85
2023/08/08 01:14:39;;;;;;;5.35;0.70;;;22.20;89.70;;;;;;6336188;22;20157;-84
2023/08/08 01:17:08;;;;;;;1.13;0.47;;;22.10;90.00;;;;;;6336158;22;20168;-86
2023/08/08 01:19:37;;;;;;;0.77;0.77;;;22.10;90.40;;;;;;6337324;22;20302;-85
2023/08/08 01:22:10;;;;;;;0.57;0.57;;;22.00;90.50;;;;;;6334961;22;20181;-84
2023/08/08 01:24:40;;;;;;;0.20;0.20;;;21.90;90.60;;;;;;6337097;22;20655;-85
2023/08/08 01:27:09;;;;;;;0.22;0.22;;;21.90;90.60;;;;;;6334680;22;20172;-84
2023/08/08 01:29:39;;;;;;;0.38;0.38;;;21.90;90.70;;;;;;6336758;22;20164;-85
2023/08/08 01:32:08;;;;;;;0.20;0.20;;;21.90;90.80;;;;;;6335853;22;20165;-85
2023/08/08 01:34:37;;;;;;;0.68;0.68;;;21.80;90.90;;;;;;6336385;22;20470;-86
2023/08/08 01:37:12;;;;;;;2.92;1.10;;;21.80;91.10;;;;;;6335434;22;20168;-86
2023/08/08 01:39:43;;;;;;;0.35;0.35;;;21.80;91.00;;;;;;6337290;22;20578;-85
2023/08/08 01:42:13;;;;;;;0.50;0.50;;;21.80;91.30;;;;;;6335837;22;20198;-84
2023/08/08 01:44:42;;;;;;;1.38;0.95;;;21.80;91.30;;;;;;6335769;22;20161;-84
2023/08/08 01:47:11;;;;;;;0.30;0.20;;;21.70;91.20;;;;;;6334457;22;20883;-86
2023/08/08 01:49:40;;;;;;;0.20;0.20;;;21.70;91.30;;;;;;6338086;22;20192;-87
2023/08/08 01:52:09;;;;;;;0.20;0.20;;;21.70;91.20;;;;;;6336052;22;20171;-84
2023/08/08 01:54:38;;;;;;;0.30;0.30;;;21.70;91.00;;;;;;6307315;22;20586;-86
2023/08/08 01:57:08;;;;;;;0.30;0.30;;;21.60;91.10;;;;;;6334337;22;20245;-84
2023/08/08 01:59:36;;;;;;;0.30;0.30;;;21.60;91.10;;;;;;6334251;22;20547;-84
2023/08/08 02:02:06;;;;;;;0.35;0.30;;;21.50;91.30;;;;;;6305719;22;20203;-85
2023/08/08 02:04:35;;;;;;;0.28;0.28;;;21.50;91.20;;;;;;6308778;22;20218;-85
2023/08/08 02:07:04;;;;;;;0.20;0.20;;;21.40;91.00;;;;;;6335851;22;20180;-85
2023/08/08 02:09:33;;;;;;;0.20;0.20;;;21.40;91.00;;;;;;6335819;22;20232;-81
2023/08/08 02:12:01;;;;;;;0.30;0.30;;;21.30;91.20;;;;;;6307117;22;20656;-85
2023/08/08 02:14:32;;;;;;;0.38;0.38;;;21.40;91.10;;;;;;6331775;22;20224;-83
2023/08/08 02:17:01;;;;;;;0.40;0.40;;;21.30;91.10;;;;;;6331744;22;20192;-85
2023/08/08 02:19:30;;;;;;;0.30;0.30;;;21.30;91.00;;;;;;6335807;22;20168;-84
2023/08/08 02:22:02;;;;;;;0.20;0.20;;;21.40;90.80;;;;;;6309407;22;20152;-83
2023/08/08 02:24:31;;;;;;;0.30;0.30;;;21.40;90.70;;;;;;6336148;22;20164;-84
2023/08/08 02:27:00;;;;;;;0.20;0.20;;;21.40;90.60;;;;;;6307797;22;20472;-84
2023/08/08 02:29:28;;;;;;;2.67;0.30;;;21.40;90.60;;;;;;6333793;22;20515;-85
2023/08/08 02:31:58;;;;;;;0.20;0.20;;;21.40;90.60;;;;;;6334864;22;20241;-86
2023/08/08 02:34:27;;;;;;;0.30;0.30;;;21.40;90.50;;;;;;6337335;22;20210;-84
2023/08/08 02:36:56;;;;;;;0.30;0.30;;;21.40;90.50;;;;;;6335024;22;20196;-85
2023/08/08 02:39:24;;;;;;;0.52;0.45;;;21.40;90.50;;;;;;6333456;22;20161;-84
2023/08/08 02:41:53;;;;;;;0.30;0.30;;;21.40;90.60;;;;;;6332657;22;20165;-83
2023/08/08 02:44:22;;;;;;;1.48;0.63;;;21.40;90.70;;;;;;6335428;22;20165;-83
2023/08/08 02:46:50;;;;;;;0.30;0.30;;;21.40;90.60;;;;;;6333439;22;20171;-82
2023/08/08 02:49:20;;;;;;;0.20;0.20;;;21.40;90.50;;;;;;6333236;22;20268;-81
2023/08/08 02:51:49;;;;;;;0.22;0.22;;;21.40;90.40;;;;;;6335695;22;20541;-82
2023/08/08 02:54:18;;;;;;;0.20;0.20;;;21.40;90.40;;;;;;6336451;22;20602;-83
2023/08/08 02:56:47;;;;;;;2.53;0.77;;;21.40;90.20;;;;;;6334551;22;20184;-82
2023/08/08 02:59:15;;;;;;;0.20;0.20;;;21.40;90.10;;;;;;6334804;22;20251;-82
2023/08/08 03:01:44;;;;;;;0.22;0.22;;;21.50;90.00;;;;;;6334480;22;20507;-83
2023/08/08 03:04:12;;;;;;;0.25;0.25;;;21.50;89.90;;;;;;6333305;22;20210;-81
2023/08/08 03:06:49;;;;;;;0.20;0.20;;;21.50;89.70;;;;;;6332603;22;20243;-81
2023/08/08 03:09:20;;;;;;;0.20;0.20;;;21.50;89.40;;;;;;6334009;22;20565;-82
2023/08/08 03:11:49;;;;;;;0.30;0.30;;;21.50;89.00;;;;;;6333042;22;20171;-82
2023/08/08 03:14:17;;;;;;;0.30;0.30;;;21.60;89.50;;;;;;6334894;22;20196;-82
2023/08/08 03:16:46;;;;;;;0.35;0.35;;;21.50;90.10;;;;;;6336676;22;20267;-83
2023/08/08 03:19:14;;;;;;;3.70;0.50;;;21.50;90.10;;;;;;6336756;22;20218;-82
2023/08/08 03:21:44;;;;;;;0.30;0.30;;;21.50;90.20;;;;;;6335253;22;20858;-81
2023/08/08 03:26:55;;;;;;;0.30;0.30;;;21.40;90.60;;;;;;6334382;22;20172;-83
2023/08/08 03:29:24;;;;;;;0.40;0.40;;;21.30;90.80;;;;;;6336254;22;20164;-84
2023/08/08 03:31:52;;;;;;;0.20;0.20;;;21.40;90.70;;;;;;6335695;22;20688;-83
2023/08/08 03:34:21;;;;;;;0.22;0.22;;;21.40;90.60;;;;;;6335363;22;20517;-84
2023/08/08 03:36:51;;;;;;;0.20;0.20;;;21.30;90.60;;;;;;6335548;22;20191;-83
2023/08/08 03:39:19;;;;;;;0.22;0.20;;;21.30;90.80;;;;;;6335176;22;20172;-83
2023/08/08 03:41:48;;;;;;;0.30;0.30;;;21.20;91.10;;;;;;6334967;22;20168;-83
2023/08/08 03:44:17;;;;;;;0.50;0.47;;;21.20;90.90;;;;;;6335432;22;20173;-82
2023/08/08 03:46:45;;;;;;;0.30;0.30;;;21.30;91.10;;;;;;6335413;22;20187;-83
2023/08/08 03:49:14;;;;;;;0.20;0.20;;;21.20;91.10;;;;;;6335121;22;20172;-84
2023/08/08 03:51:43;;;;;;;0.20;0.20;;;21.20;91.20;;;;;;6336758;22;20235;-85
2023/08/08 03:54:13;;;;;;;0.38;0.30;;;21.20;91.20;;;;;;6335240;22;20483;-84
2023/08/08 03:56:41;;;;;;;0.30;0.30;;;21.20;91.40;;;;;;6336610;22;20553;-83
2023/08/08 03:59:10;;;;;;;0.45;0.28;;;21.20;91.40;;;;;;6334885;22;20245;-84
2023/08/08 04:01:41;;;;;;;0.17;0.17;;;21.20;91.70;;;;;;6336058;22;20152;-82
2023/08/08 04:04:09;;;;;;;0.30;0.30;;;21.10;91.80;;;;;;6334901;22;20160;-84
2023/08/08 04:06:38;;;;;;;0.32;0.32;;;21.10;91.80;;;;;;6336189;22;20179;-86
2023/08/08 04:09:07;;;;;;;0.68;0.55;;;21.10;92.00;;;;;;6334575;22;20656;-84
2023/08/08 04:11:37;;;;;;;1.20;0.45;;;20.90;92.40;;;;;;6337335;22;20156;-85
2023/08/08 04:14:06;;;;;;;0.35;0.30;;;21.00;92.10;;;;;;6336219;22;20160;-85
2023/08/08 04:16:34;;;;;;;1.27;0.73;;;21.00;92.20;;;;;;6336445;22;20668;-84
2023/08/08 04:19:03;;;;;;;1.10;0.82;;;21.00;92.10;;;;;;6334909;22;20202;-83
2023/08/08 04:21:32;;;;;;;0.20;0.20;;;21.00;92.40;;;;;;6335318;22;20903;-86
2023/08/08 04:24:01;;;;;;;0.43;0.43;;;20.90;92.50;;;;;;6335152;22;20164;-84
2023/08/08 04:26:29;;;;;;;0.32;0.32;;;20.90;92.40;;;;;;6335067;22;20248;-82
2023/08/08 04:28:59;;;;;;;0.85;0.65;;;20.90;92.20;;;;;;6334912;22;20175;-85
2023/08/08 04:31:28;;;;;;;0.57;0.50;;;20.90;92.50;;;;;;6336397;22;20198;-84
2023/08/08 04:34:00;;;;;;;0.30;0.30;;;20.90;92.70;;;;;;6335290;22;20467;-84
2023/08/08 04:36:29;;;;;;;0.65;0.40;;;20.90;92.50;;;;;;6334953;22;20258;-83
2023/08/08 04:38:58;;;;;;;0.60;0.60;;;20.80;92.70;;;;;;6334555;22;20171;-85
2023/08/08 04:41:27;;;;;;;0.73;0.40;;;20.80;92.70;;;;;;6335005;22;20168;-84
2023/08/08 04:43:55;;;;;;;0.30;0.30;;;20.80;92.70;;;;;;6335234;22;20498;-85
2023/08/08 04:46:25;;;;;;;0.30;0.30;;;20.80;92.70;;;;;;6336312;22;20160;-85
2023/08/08 04:48:54;;;;;;;0.32;0.30;;;20.70;92.80;;;;;;6335444;22;20621;-84
2023/08/08 04:51:23;;;;;;;0.82;0.82;;;20.70;92.90;;;;;;6335737;22;20199;-83
2023/08/08 04:53:51;;;;;;;0.40;0.40;;;20.60;92.80;;;;;;6335863;22;20633;-85
2023/08/08 04:56:20;;;;;;;0.50;0.50;;;20.60;92.80;;;;;;6335139;22;20165;-84
2023/08/08 04:58:48;;;;;;;0.40;0.40;;;20.60;92.80;;;;;;6334830;22;20192;-88
2023/08/08 05:01:20;;;;;;;0.70;0.70;;;20.70;92.70;;;;;;6336382;22;20199;-87
2023/08/08 05:03:50;;;;;;;0.47;0.47;;;20.70;92.60;;;;;;6335567;22;20160;-84
2023/08/08 05:06:22;;;;;;;0.30;0.30;;;20.60;92.70;;;;;;6336551;22;20227;-86
2023/08/08 05:08:52;;;;;;;0.65;0.65;;;20.70;92.50;;;;;;6336961;22;20214;-84
2023/08/08 05:11:21;;;;;;;0.50;0.50;;;20.70;92.50;;;;;;6337226;22;20164;-84
2023/08/08 05:13:49;;;;;;;0.73;0.63;;;20.70;92.50;;;;;;6338106;22;20164;-84
2023/08/08 05:16:19;;;;;;;3.13;0.95;;;20.70;92.50;;;;;;6337972;22;20169;-87
2023/08/08 05:18:49;;;;;;;0.30;0.30;;;20.60;92.40;;;;;;6336522;22;20227;-85
2023/08/08 05:21:17;;;;;;;0.28;0.28;;;20.70;92.30;;;;;;6337306;22;20198;-85
2023/08/08 05:23:46;;;;;;;0.85;0.63;;;20.60;92.40;;;;;;6336714;22;20160;-86
2023/08/08 05:26:15;;;;;;;0.63;0.63;;;20.60;92.40;;;;;;6337229;22;20247;-83
2023/08/08 05:28:46;;;;;;;0.43;0.43;;;20.60;92.30;;;;;;6336934;22;20616;-84
2023/08/08 05:31:15;;;;;;;0.55;0.55;;;20.70;92.30;;;;;;6336648;22;20221;-83
2023/08/08 05:33:43;;;;;;;1.08;0.70;;;20.60;92.30;;;;;;6335449;22;20594;-83
2023/08/08 05:36:13;;;;;;;0.35;0.32;;;20.60;92.30;;;;;;6336984;22;20168;-85
2023/08/08 05:38:42;;;;;;;2.20;1.10;;;20.60;92.20;;;;;;6335668;22;20184;-85
2023/08/08 05:41:10;;;;;;;1.02;0.80;;;20.70;92.30;;;;;;6337949;22;20240;-83
2023/08/08 05:43:38;;;;;;;0.30;0.30;;;20.60;92.20;;;;;;6335434;22;20176;-83
2023/08/08 05:46:07;;;;;;;3.80;1.45;;;20.60;92.30;;;;;;6334831;22;20647;-84
2023/08/08 05:48:36;;;;;;;0.80;0.70;;;20.60;92.40;;;;;;6336239;22;20164;-83
2023/08/08 05:51:05;;;;;;;3.20;1.00;;;20.60;92.50;;;;;;6336576;22;20563;-84
2023/08/08 05:53:35;;;;;;;1.05;0.60;;;20.60;92.50;;;;;;6334951;22;20239;-83
2023/08/08 05:56:03;;;;;;;0.73;0.57;;;20.60;92.50;;;;;;6335739;22;20160;-84
2023/08/08 05:58:32;;;;;;;0.73;0.65;;;20.60;92.40;;;;;;6333699;22;20188;-84
2023/08/08 06:01:01;;;;;;;0.85;0.85;;;20.60;92.60;;;;;;6336603;22;20170;-86
2023/08/08 06:03:29;;;;;;;1.20;0.95;;;20.60;92.60;;;;;;6337489;22;20164;-83
2023/08/08 06:05:57;;;;;;;0.50;0.50;;;20.60;92.50;;;;;;6335111;22;20168;-84
2023/08/08 06:08:26;;;;;;;1.30;1.05;;;20.70;92.40;;;;;;6336407;22;20171;-86
2023/08/08 06:10:56;;;;;;;0.90;0.65;;;20.70;92.40;;;;;;6337458;22;20194;-85
2023/08/08 06:13:24;;;;;;;1.30;1.00;;;20.60;92.50;;;;;;6337646;22;20171;-84
2023/08/08 06:15:53;;;;;;;0.90;0.60;;;20.70;92.40;;;;;;6337629;22;20167;-84
2023/08/08 06:18:21;;;;;;;0.22;0.22;;;20.80;92.30;;;;;;6336637;22;20223;-84
2023/08/08 06:20:50;;;;;;;0.82;0.55;;;20.80;92.40;;;;;;6336660;22;20168;-82
2023/08/08 06:23:18;;;;;;;0.93;0.90;;;20.80;92.30;;;;;;6335631;22;20169;-83
2023/08/08 06:25:46;;;;;;;0.82;0.52;;;20.90;92.20;;;;;;6336539;22;20949;-85
2023/08/08 06:28:16;;;;;;;0.95;0.60;;;20.80;92.40;;;;;;6336691;22;20172;-85
2023/08/08 06:30:45;;;;;;;0.50;0.50;;;20.80;92.50;;;;;;6336347;22;20164;-84
2023/08/08 06:33:13;;;;;;;0.43;0.43;;;20.80;92.50;;;;;;6338531;22;20182;-87
2023/08/08 06:35:43;;;;;;;2.63;1.23;;;20.90;92.70;;;;;;6338194;22;20496;-87
2023/08/08 06:38:14;;;;;;;0.65;0.50;;;20.70;92.80;;;;;;6336710;22;20238;-83
2023/08/08 06:40:42;;;;;;;0.80;0.77;;;20.80;93.00;;;;;;6336871;22;20169;-84
2023/08/08 06:43:10;;;;;;;0.38;0.32;;;20.80;92.90;;;;;;6336187;22;20175;-80
2023/08/08 06:45:41;;;;;;;1.10;1.00;;;20.70;92.90;;;;;;6337019;22;20630;-82
2023/08/08 06:48:10;;;;;;;0.45;0.43;;;20.70;93.10;;;;;;6337382;22;20172;-81
2023/08/08 06:50:38;;;;;;;2.97;0.50;;;20.80;93.00;;;;;;6337627;22;20173;-82
2023/08/08 06:53:07;;;;;;;1.00;0.90;;;20.70;93.20;;;;;;6337177;22;20221;-86
2023/08/08 06:55:36;;;;;;;0.73;0.73;;;20.70;93.10;;;;;;6311270;22;20480;-88
2023/08/08 06:58:05;;;;;;;0.40;0.40;;;20.70;93.10;;;;;;6337362;22;20192;-86
2023/08/08 07:00:33;;;;;;;0.20;0.20;;;20.70;93.00;;;;;;6338354;22;20169;-84
2023/08/08 07:03:04;;;;;;;1.38;0.85;;;20.70;93.00;;;;;;6337573;22;21010;-84
2023/08/08 07:05:32;;;;;;;2.70;0.80;;;20.70;93.00;;;;;;6340678;22;20175;-87
2023/08/08 07:08:01;;;;;;;2.17;0.95;;;20.60;93.10;;;;;;6349379;22;20172;-88
2023/08/08 07:10:30;;;;;;;1.08;0.55;;;20.60;93.30;;;;;;6353368;22;20199;-89
2023/08/08 07:12:58;;;;;;;1.13;0.70;;;20.70;93.10;;;;;;6353289;22;20164;-85
2023/08/08 07:15:27;;;;;;;1.70;0.75;;;20.70;93.60;;;;;;6353847;22;20168;-86
2023/08/08 07:17:56;;;;;;;1.05;0.90;;;20.70;93.00;;;;;;6352958;22;20161;-83
2023/08/08 07:20:26;;;;;;;0.80;0.55;;;20.80;92.90;;;;;;6353256;22;20165;-81
2023/08/08 07:22:54;;;;;;;1.13;1.08;;;20.80;93.00;;;;;;6353825;22;20171;-86
2023/08/08 07:25:25;;;;;;;1.40;1.13;;;20.80;92.70;;;;;;6351119;22;20199;-86
2023/08/08 07:27:54;;;;;;;2.67;1.05;;;20.80;92.70;;;;;;6354442;22;20220;-92
2023/08/08 07:30:25;;;;;;;1.40;0.80;;;20.80;92.60;;;;;;6352761;22;20224;-88
2023/08/08 07:32:53;;;;;;;1.17;1.05;;;20.80;92.50;;;;;;6354119;22;20164;-88
2023/08/08 07:35:23;;;;;;;1.20;1.10;;;20.80;92.40;;;;;;6353467;22;20164;-86
2023/08/08 07:37:53;;;;;;;1.98;0.88;;;20.90;92.40;;;;;;6354014;22;20220;-86
2023/08/08 07:40:22;;;;;;;2.45;1.40;;;20.90;92.40;;;;;;6351962;22;20164;-86
2023/08/08 07:42:51;;;;;;;1.20;1.05;;;21.00;92.30;;;;;;6353054;22;20161;-87
2023/08/08 07:45:19;;;;;;;0.43;0.43;;;21.10;92.20;;;;;;6354761;22;20716;-86
2023/08/08 07:47:48;;;;;;;1.20;0.90;;;21.10;92.00;;;;;;6357750;22;20165;-85
2023/08/08 07:50:17;;;;;;;2.80;0.77;;;21.20;91.80;;;;;;6358756;22;20175;-84
2023/08/08 07:52:45;;;;;;;1.45;0.80;;;21.30;91.70;;;;;;6359465;22;20149;-86
2023/08/08 07:55:15;;;;;;;0.95;0.88;;;21.40;91.60;;;;;;6360034;22;20194;-87
2023/08/08 07:57:44;;;;;;;0.80;0.80;;;21.40;91.30;;;;;;6362344;22;20165;-86
2023/08/08 08:00:13;;;;;;;4.95;1.33;;;21.40;91.20;;;;;;6360892;22;20192;-88
2023/08/08 08:02:44;;;;;;;0.93;0.85;;;21.50;91.20;;;;;;6362775;22;20204;-85
2023/08/08 08:05:13;;;;;;;15.15;1.13;;;21.50;91.20;;;;;;6361435;22;20160;-88
2023/08/08 08:07:42;;;;;;;0.65;0.52;;;21.60;91.20;;;;;;6359493;22;20164;-87
2023/08/08 08:10:53;;;;;;;1.10;0.82;;;21.70;91.10;;;;;;6349648;22;20676;-85
2023/08/08 08:13:23;;;;;;;1.23;1.10;;;21.80;90.90;;;;;;6353181;22;20235;-84
2023/08/08 08:15:52;;;;;;;0.50;0.50;;;21.80;90.70;;;;;;6351005;22;20210;-83
2023/08/08 08:18:22;;;;;;;2.05;1.05;;;21.90;90.70;;;;;;6351666;22;20175;-85
2023/08/08 08:20:50;;;;;;;1.85;1.15;;;21.90;90.70;;;;;;6349820;22;20621;-86
2023/08/08 08:23:19;;;;;;;1.65;1.55;;;21.90;90.40;;;;;;6343093;22;20171;-85
2023/08/08 08:25:48;;;;;;;1.52;1.23;;;21.90;90.30;;;;;;6338334;22;20501;-86
2023/08/08 08:28:17;;;;;;;4.43;1.00;;;22.00;90.20;;;;;;6337292;22;20164;-85
2023/08/08 08:30:47;;;;;;;1.23;1.13;;;22.10;90.20;;;;;;6335062;22;20507;-83
2023/08/08 08:33:16;;;;;;;1.20;0.75;;;22.10;90.00;;;;;;6334548;22;20768;-85
2023/08/08 08:35:45;;;;;;;2.10;1.42;;;22.10;89.90;;;;;;6334905;22;20621;-85
2023/08/08 08:38:14;;;;;;;1.40;1.00;;;22.10;89.70;;;;;;6336064;22;20511;-85
2023/08/08 08:40:45;;;;;;;2.17;1.63;;;22.10;89.20;;;;;;6336228;22;20271;-86
2023/08/08 08:43:14;;;;;;;1.52;1.17;;;22.20;89.10;;;;;;6338685;22;20148;-86
2023/08/08 08:45:45;;;;;;;1.30;1.17;;;22.20;89.40;;;;;;6337960;22;20258;-86
2023/08/08 08:48:19;;;;;;;2.22;1.33;;;22.20;89.10;;;;;;6335886;22;20148;-86
2023/08/08 08:50:49;;;;;;;1.38;0.75;;;22.40;89.40;;;;;;6338464;22;20241;-85
2023/08/08 08:53:18;;;;;;;0.73;0.63;;;22.50;89.30;;;;;;6337975;22;20197;-85
2023/08/08 08:55:47;;;;;;;1.80;1.50;;;22.50;88.60;;;;;;6338696;22;20169;-86
2023/08/08 08:58:17;;;;;;;0.50;0.50;;;22.60;89.20;;;;;;6337956;22;20617;-86
2023/08/08 09:00:47;;;;;;;0.60;0.60;;;22.70;88.20;;;;;;6336617;22;20600;-86
2023/08/08 09:03:19;;;;;;;1.42;1.00;;;22.80;87.80;;;;;;6334521;22;20168;-86
2023/08/08 09:05:49;;;;;;;1.00;0.70;;;22.80;87.30;;;;;;6338336;22;20218;-87
2023/08/08 09:08:18;;;;;;;1.05;0.80;;;22.90;87.00;;;;;;6337295;22;20176;-86
2023/08/08 09:10:46;;;;;;;1.65;0.93;;;23.00;86.30;;;;;;6337158;22;20188;-85
2023/08/08 09:13:15;;;;;;;1.17;1.02;;;23.00;86.20;;;;;;6337657;22;20168;-87
2023/08/08 09:15:44;;;;;;;0.65;0.52;;;23.00;85.80;;;;;;6337811;22;20165;-88
2023/08/08 09:18:12;;;;;;;0.70;0.70;;;23.10;85.90;;;;;;6334888;22;20295;-88
2023/08/08 09:20:47;;;;;;;0.63;0.60;;;23.10;85.90;;;;;;6337156;22;20599;-86
2023/08/08 09:23:16;;;;;;;0.95;0.73;;;23.20;85.80;;;;;;6335853;22;20574;-86
2023/08/08 09:25:45;;;;;;;0.60;0.60;;;23.40;85.60;;;;;;6338180;22;20168;-87
2023/08/08 09:28:13;;;;;;;1.77;1.17;;;23.40;85.30;;;;;;6335887;22;20161;-84
2023/08/08 09:30:43;;;;;;;8.88;1.77;;;23.50;85.20;;;;;;6336328;22;20252;-86
2023/08/08 09:33:13;;;;;;;0.77;0.77;;;23.50;84.90;;;;;;6335589;22;20569;-88
2023/08/08 09:35:43;;;;;;;24.65;1.38;;;23.60;84.70;;;;;;6337544;22;20156;-88
2023/08/08 09:38:11;;;;;;;1.02;0.93;;;23.60;85.20;;;;;;6336733;22;20647;-86
2023/08/08 09:40:43;;;;;;;0.77;0.65;;;23.70;84.00;;;;;;6336695;22;20661;-86
2023/08/08 09:43:13;;;;;;;1.17;0.68;;;23.80;83.70;;;;;;6336679;22;20160;-87
2023/08/08 09:45:42;;;;;;;1.05;0.95;;;23.90;83.80;;;;;;6338048;22;20210;-86
2023/08/08 09:48:11;;;;;;;0.45;0.45;;;24.00;83.60;;;;;;6337406;22;20175;-84
2023/08/08 09:50:42;;;;;;;0.88;0.57;;;24.10;83.20;;;;;;6337183;22;20161;-84
2023/08/08 09:53:12;;;;;;;0.82;0.57;;;24.20;83.10;;;;;;6335311;22;20172;-85
2023/08/08 09:55:41;;;;;;;0.82;0.70;;;24.30;83.00;;;;;;6336826;22;20148;-81
2023/08/08 09:58:10;;;;;;;0.30;0.30;;;24.20;81.90;;;;;;6335109;22;20161;-84
2023/08/08 10:00:39;;;;;;;0.75;0.75;;;24.20;81.70;;;;;;6336304;22;20192;-83
2023/08/08 10:03:08;;;;;;;0.60;0.40;;;24.10;81.60;;;;;;6336469;22;20152;-83
2023/08/08 10:05:38;;;;;;;0.30;0.30;;;23.90;79.10;;;;;;6337531;22;20171;-84
2023/08/08 10:08:08;;;;;;;0.20;0.20;;;23.90;78.60;;;;;;6335984;22;20166;-82
2023/08/08 10:10:38;;;;;;;0.20;0.20;;;23.80;78.10;;;;;;6337141;22;20196;-83
2023/08/08 10:13:07;;;;;;;0.20;0.20;;;23.80;77.50;;;;;;6335665;22;20164;-85
2023/08/08 10:15:38;;;;;;;0.10;0.10;;;23.70;77.90;;;;;;6337665;22;20175;-85
2023/08/08 10:18:07;;;;;;;0.20;0.20;;;23.60;78.30;;;;;;6335272;22;20490;-85
2023/08/08 10:20:37;;;;;;;0.20;0.20;;;23.60;79.00;;;;;;6336582;22;20516;-85
2023/08/08 10:23:08;;;;;;;0.20;0.20;;;23.60;79.40;;;;;;6336471;22;20871;-85
2023/08/08 10:25:36;;;;;;;0.28;0.28;;;23.60;79.70;;;;;;6335088;22;20164;-85
2023/08/08 10:28:10;;;;;;;0.20;0.20;;;23.50;79.90;;;;;;6336298;22;20160;-84
2023/08/08 10:31:01;;;;;;;5.28;0.90;;;23.50;80.50;;;;;;6337830;22;20173;-90
2023/08/08 10:33:41;;;;;;;0.32;0.32;;;23.50;81.70;;;;;;6337635;22;20156;-88
2023/08/08 10:36:10;;;;;;;0.28;0.20;;;23.40;82.20;;;;;;6335723;22;20665;-88
2023/08/08 10:38:46;;;;;;;0.20;0.20;;;23.40;82.00;;;;;;6337536;22;20160;-87
2023/08/08 10:41:17;;;;;;;0.20;0.20;;;23.30;81.80;;;;;;6337730;22;20188;-89
2023/08/08 10:43:57;;;;;;;0.35;0.20;;;23.30;81.60;;;;;;6337580;22;20187;-93
2023/08/08 10:46:28;;;;;;;0.10;0.10;;;23.40;81.90;;;;;;6338232;22;20525;-87
2023/08/08 10:48:59;;;;;;;0.30;0.30;;;23.30;82.00;;;;;;6336533;22;20160;-86
2023/08/08 10:52:03;;;;;;;0.10;0.10;;;23.30;81.80;;;;;;6338978;22;20155;-86
2023/08/08 10:54:39;;;;;;;0.20;0.20;;;23.30;81.50;;;;;;6305479;22;20578;-84
2023/08/08 10:57:19;;;;;;;0.20;0.20;;;23.40;81.30;;;;;;6305143;22;20157;-86
2023/08/08 11:00:13;;;;;;;0.10;0.10;;;23.50;81.10;;;;;;6305245;22;20160;-88
2023/08/08 11:02:42;;;;;;;0.77;0.57;;;23.60;79.20;;;;;;6305136;22;20171;-85
2023/08/08 11:05:28;;;;;;;0.30;0.30;;;23.60;76.50;;;;;;6304628;22;20244;-86
2023/08/08 11:08:02;;;;;;;0.20;0.20;;;23.70;76.50;;;;;;6304062;22;20618;-87
2023/08/08 11:10:38;;;;;;;0.38;0.38;;;23.80;76.10;;;;;;6306064;22;20681;-84
2023/08/08 11:13:09;;;;;;;0.10;0.10;;;23.90;73.60;;;;;;6305726;22;20474;-85
2023/08/08 11:15:43;;;;;;;0.20;0.20;;;23.90;73.40;;;;;;6304989;22;20167;-86
2023/08/08 11:18:12;;;;;;;0.20;0.20;;;24.00;72.50;;;;;;6304417;22;20236;-85
2023/08/08 11:20:41;;;;;;;0.20;0.20;;;23.90;71.90;;;;;;6304803;22;20189;-84
2023/08/08 11:23:13;;;;;;;0.20;0.20;;;24.00;72.70;;;;;;6305004;22;20176;-86
2023/08/08 11:25:45;;;;;;;0.25;0.25;;;24.00;72.70;;;;;;6304731;22;20625;-85
2023/08/08 11:28:34;;;;;;;;;;;;;;;;;;;;;
2023/08/08 11:31:08;;;;;;;0.20;0.20;;;24.10;71.80;;;;;;6302601;22;20161;-86
2023/08/08 11:33:39;;;;;;;0.20;0.20;;;24.20;72.60;;;;;;6305324;22;20222;-85
2023/08/08 11:36:08;;;;;;;0.20;0.20;;;24.20;72.20;;;;;;6305637;22;20244;-84
2023/08/08 11:38:37;;;;;;;0.30;0.30;;;24.30;72.70;;;;;;6304925;22;20161;-83
2023/08/08 11:41:10;;;;;;;0.20;0.20;;;24.30;69.80;;;;;;6303288;22;20189;-82
2023/08/08 11:43:42;;;;;;;0.20;0.20;;;24.30;70.00;;;;;;6304064;22;20169;-83
2023/08/08 11:46:10;;;;;;;2.90;0.40;;;24.40;70.70;;;;;;6303988;22;20165;-82
2023/08/08 11:48:39;;;;;;;0.15;0.15;;;24.50;70.80;;;;;;6302921;22;20169;-83
2023/08/08 11:51:09;;;;;;;0.10;0.10;;;24.50;70.50;;;;;;6304821;22;20169;-84
2023/08/08 11:53:48;;;;;;;0.30;0.30;;;24.60;70.10;;;;;;6305488;22;20199;-84
2023/08/08 11:56:19;;;;;;;0.20;0.20;;;24.60;70.20;;;;;;6305255;22;20153;-85
2023/08/08 11:58:50;;;;;;;0.20;0.20;;;24.60;69.20;;;;;;6305289;22;20153;-83
2023/08/08 12:01:21;;;;;;;0.35;0.22;;;24.60;68.80;;;;;;6303780;22;20662;-83
2023/08/08 12:03:50;;;;;;;0.20;0.20;;;24.70;69.80;;;;;;6277524;22;20478;-85
2023/08/08 12:06:19;;;;;;;0.10;0.10;;;24.70;68.90;;;;;;6304842;22;20161;-84
2023/08/08 12:08:48;;;;;;;0.55;0.55;;;24.80;69.50;;;;;;6302081;22;20168;-85
2023/08/08 12:11:18;;;;;;;0.25;0.25;;;24.90;69.20;;;;;;6270836;22;20249;-84
2023/08/08 12:13:58;;;;;;;0.20;0.20;;;25.00;69.50;;;;;;6273872;22;20232;-86
2023/08/08 12:16:30;;;;;;;0.20;0.20;;;25.10;69.50;;;;;;6274120;22;20171;-81
2023/08/08 12:19:03;;;;;;;0.20;0.20;;;25.20;69.30;;;;;;6273711;22;20794;-82
2023/08/08 12:21:33;;;;;;;1.33;0.90;;;25.20;68.80;;;;;;6275671;22;20189;-82
2023/08/08 12:24:02;;;;;;;0.15;0.15;;;25.30;68.60;;;;;;6272921;22;20166;-82
2023/08/08 12:26:33;;;;;;;0.10;0.10;;;25.40;68.00;;;;;;6275660;22;20174;-81
2023/08/08 12:29:02;;;;;;;0.10;0.10;;;25.40;66.80;;;;;;6274861;22;20591;-83
2023/08/08 12:31:31;;;;;;;0.20;0.20;;;25.40;66.70;;;;;;6248534;22;20619;-84
2023/08/08 12:34:00;;;;;;;0.20;0.20;;;25.50;66.40;;;;;;6274479;22;20166;-82
2023/08/08 12:36:28;;;;;;;0.13;0.13;;;25.50;65.00;;;;;;6276643;22;20177;-82
2023/08/08 12:38:57;;;;;;;0.10;0.10;;;25.50;65.20;;;;;;6275402;22;20172;-85
2023/08/08 12:41:25;;;;;;;0.10;0.10;;;25.60;66.00;;;;;;6275948;22;20190;-85
2023/08/08 12:43:55;;;;;;;0.28;0.28;;;25.60;65.10;;;;;;6276136;22;20169;-85
2023/08/08 12:46:24;;;;;;;0.10;0.10;;;25.70;65.40;;;;;;6275604;22;20196;-84
2023/08/08 12:48:52;;;;;;;0.10;0.10;;;25.70;64.30;;;;;;6276441;22;20176;-87
2023/08/08 12:51:21;;;;;;;0.20;0.20;;;25.80;64.40;;;;;;6249115;22;20557;-85
2023/08/08 12:53:50;;;;;;;0.20;0.20;;;25.80;65.00;;;;;;6275736;22;20248;-85
2023/08/08 12:56:19;;;;;;;0.10;0.10;;;25.90;65.20;;;;;;6275167;22;20178;-85
2023/08/08 12:58:47;;;;;;;0.65;0.65;;;25.90;64.00;;;;;;6275189;22;20172;-84
2023/08/08 13:01:17;;;;;;;0.20;0.20;;;26.00;64.50;;;;;;6274099;22;20232;-85
2023/08/08 13:03:46;;;;;;;0.15;0.15;;;26.00;64.30;;;;;;6275047;22;20240;-84
2023/08/08 13:06:24;;;;;;;0.10;0.10;;;26.10;63.80;;;;;;6275816;22;20165;-85